This is the latest recevied weather packets stored in our database for station/object N2XP-3. If no packets are shown the sender has not sent any weather packets the latest 10 day(s).
| Time | Temp. | Humidity | Pressure | Rain* | Wind** | Luminosity | Snow |
|---|---|---|---|---|---|---|---|
| 1777059620 | 23.89° C | 31% | 1005.4 hPa | 0 mm | 0.89 m/s, 205° | - | - |
| 1777059011 | 22.78° C | 30% | 1005.5 hPa | 0 mm | 1.34 m/s, 35° | - | - |
| 1777058711 | 22.78° C | 30% | 1005.6 hPa | 0 mm | 3.13 m/s, 359° | - | - |
| 1777058411 | 22.78° C | 30% | 1005.6 hPa | 0 mm | 2.68 m/s, 91° | - | - |
| 1777058108 | 22.78° C | 32% | 1005.6 hPa | 0 mm | 0.89 m/s, 152° | - | - |
| 1777057202 | 22.78° C | 31% | 1005.8 hPa | 0 mm | 1.79 m/s, 38° | - | - |
| 1777056902 | 22.78° C | 31% | 1005.9 hPa | 0 mm | 2.68 m/s, 184° | - | - |
| 1777056603 | 22.78° C | 32% | 1005.9 hPa | 0 mm | 0.45 m/s, 245° | - | - |
| 1777055690 | 23.33° C | 31% | 1006 hPa | 0 mm | 1.79 m/s, 302° | - | - |
| 1777054470 | 22.78° C | 33% | 1006 hPa | 0 mm | 1.34 m/s, 65° | - | - |
| 1777052053 | 20.56° C | 35% | 1006.6 hPa | 0 mm | 2.24 m/s, 45° | - | - |
| 1777051143 | 21.67° C | 36% | 1006.5 hPa | 0 mm | 1.79 m/s, 285° | - | - |
| 1777050871 | 21.11° C | 35% | 1006.6 hPa | 0 mm | 0.89 m/s, 170° | - | - |
| 1777050840 | 21.11° C | 35% | 1006.6 hPa | 0 mm | 0.89 m/s, 170° | - | - |
| 1777050237 | 21.11° C | 37% | 1006.5 hPa | 0 mm | 2.24 m/s, 66° | - | - |
| 1777049931 | 20.56° C | 35% | 1006.7 hPa | 0 mm | 0.89 m/s, 170° | - | - |
| 1777049632 | 21.11° C | 35% | 1006.8 hPa | 0 mm | 1.79 m/s, 0° | - | - |
| 1777049024 | 21.11° C | 37% | 1006.6 hPa | 0 mm | 1.79 m/s, 120° | - | - |
| 1777048724 | 21.11° C | 37% | 1006.7 hPa | 0 mm | 0 m/s | - | - |
| 1777048423 | 20.56° C | 39% | 1006.7 hPa | 0 mm | 2.24 m/s, 39° | - | - |
| 1777048118 | 20° C | 38% | 1006.9 hPa | 0 mm | 2.24 m/s, 214° | - | - |
| 1777047516 | 20° C | 37% | 1007 hPa | 0 mm | 2.68 m/s, 20° | - | - |
| 1777047209 | 20° C | 39% | 1007.1 hPa | 0 mm | 0.89 m/s, 212° | - | - |
| 1777046908 | 19.44° C | 39% | 1007.2 hPa | 0 mm | 1.34 m/s, 224° | - | - |
| 1777046003 | 18.89° C | 39% | 1007.4 hPa | 0 mm | 2.24 m/s, 52° | - | - |
* Rain latest hour (hover to see other rain measurements)
** Current wind speed in m/s (hover to see current wind gust speed)